Time;durP1;ratioP1;P1;durP2;ratioP2;P2;SDS_P1;SDS_P2;PMS_P1;PMS_P2;Temp;Humidity;BMP_temperature;BMP_pressure;BME280_temperature;BME280_humidity;BME280_pressure;Samples;Min_cycle;Max_cycle;Signal;HPM_P1;HPM_P2
2023/05/16 00:02:24;;;;;;;14.68;4.35;;;;;;;9.16;96.48;101838.28;5017549;28;20674;-53
2023/05/16 00:04:50;;;;;;;16.15;4.60;;;;;;;9.13;97.10;101846.81;5018515;28;20025;-54
2023/05/16 00:07:16;;;;;;;14.80;4.18;;;;;;;9.17;95.91;101850.47;5018684;28;20025;-54
2023/05/16 00:09:41;;;;;;;19.67;4.30;;;;;;;9.10;96.46;101841.50;5018121;28;20030;-54
2023/05/16 00:12:07;;;;;;;13.90;3.90;;;;;;;9.08;95.99;101844.84;5018114;28;20087;-53
2023/05/16 00:14:34;;;;;;;15.48;3.95;;;;;;;9.02;96.50;101843.75;5018034;28;20088;-55
2023/05/16 00:16:59;;;;;;;22.58;5.22;;;;;;;9.03;95.62;101847.22;5018458;28;20041;-53
2023/05/16 00:19:26;;;;;;;18.30;4.60;;;;;;;8.98;96.10;101849.63;5017761;28;20415;-54
2023/05/16 00:21:51;;;;;;;11.73;3.80;;;;;;;8.94;96.10;101852.00;5018166;28;20021;-53
2023/05/16 00:24:17;;;;;;;18.73;4.07;;;;;;;8.92;95.99;101856.22;5018149;28;20021;-53
2023/05/16 00:26:43;;;;;;;14.35;3.92;;;;;;;8.90;96.53;101852.69;5018648;28;20069;-54
2023/05/16 00:29:08;;;;;;;14.43;4.25;;;;;;;8.85;96.01;101855.97;5017478;28;20048;-53
2023/05/16 00:31:33;;;;;;;20.77;4.55;;;;;;;8.82;95.79;101861.00;5017111;28;20025;-54
2023/05/16 00:33:59;;;;;;;14.23;4.00;;;;;;;8.76;95.82;101854.63;5020071;28;20053;-53
2023/05/16 00:36:24;;;;;;;14.70;3.42;;;;;;;8.69;95.66;101851.75;5019395;28;20500;-52
2023/05/16 00:38:50;;;;;;;16.10;4.22;;;;;;;8.62;96.49;101859.19;5019222;28;20025;-54
2023/05/16 00:41:16;;;;;;;13.52;4.15;;;;;;;8.62;95.31;101854.00;5017530;28;20222;-53
2023/05/16 00:43:41;;;;;;;12.93;3.50;;;;;;;8.49;95.34;101855.97;5018651;28;20044;-53
2023/05/16 00:46:06;;;;;;;16.63;3.65;;;;;;;8.45;95.05;101856.66;5018897;28;20033;-54
2023/05/16 00:48:32;;;;;;;14.32;3.63;;;;;;;8.35;95.31;101855.25;5019011;28;20033;-53
2023/05/16 00:50:58;;;;;;;13.20;4.40;;;;;;;8.28;95.57;101848.00;5017566;28;20037;-52
2023/05/16 00:53:24;;;;;;;10.70;3.47;;;;;;;8.24;95.54;101855.56;5018183;28;20312;-53
2023/05/16 00:55:51;;;;;;;13.55;3.40;;;;;;;8.14;96.16;101860.31;5018016;28;20077;-52
2023/05/16 00:58:16;;;;;;;18.27;3.65;;;;;;;8.10;95.90;101863.56;5017690;28;20045;-52
2023/05/16 01:00:43;;;;;;;14.00;3.42;;;;;;;8.04;96.38;101865.84;5015448;28;20040;-53
2023/05/16 01:03:08;;;;;;;12.10;3.55;;;;;;;8.03;96.02;101874.44;5015096;28;20099;-52
2023/05/16 01:05:34;;;;;;;14.38;2.97;;;;;;;7.96;96.25;101862.84;5017496;28;20104;-52
2023/05/16 01:07:59;;;;;;;12.77;3.28;;;;;;;7.94;95.99;101872.28;5017918;28;20369;-52
2023/05/16 01:10:31;;;;;;;15.90;3.95;;;;;;;7.95;95.38;101875.75;5016239;28;20029;-53
2023/05/16 01:13:21;;;;;;;10.45;3.30;;;;;;;7.88;95.69;101876.25;5017709;28;20038;-52
2023/05/16 01:15:54;;;;;;;14.52;3.25;;;;;;;7.83;95.51;101871.75;5017166;28;20484;-52
2023/05/16 01:18:22;;;;;;;13.13;3.00;;;;;;;7.74;96.29;101871.25;5017231;28;20044;-51
2023/05/16 01:20:51;;;;;;;13.48;3.53;;;;;;;7.69;96.53;101874.41;5016343;28;20077;-52
2023/05/16 01:23:45;;;;;;;13.15;3.53;;;;;;;7.67;96.81;101869.16;5016841;28;20071;-51
2023/05/16 01:26:13;;;;;;;14.13;4.05;;;;;;;7.59;96.90;101870.44;5019337;28;20036;-52
2023/05/16 01:28:39;;;;;;;11.85;2.80;;;;;;;7.56;96.71;101866.00;5020663;28;20042;-52
2023/05/16 01:31:04;;;;;;;13.52;3.30;;;;;;;7.50;96.56;101876.03;5002727;28;20041;-52
2023/05/16 01:33:30;;;;;;;15.82;3.00;;;;;;;7.47;96.84;101873.28;5021102;28;20064;-52
2023/05/16 01:36:17;;;;;;;11.45;3.25;;;;;;;7.43;97.04;101876.53;5021196;28;20064;-51
2023/05/16 01:38:58;;;;;;;12.10;2.75;;;;;;;7.39;96.31;101878.09;5021653;28;20037;-53
2023/05/16 01:41:46;;;;;;;14.70;3.30;;;;;;;7.35;96.86;101876.13;5021034;28;20052;-53
2023/05/16 01:44:27;;;;;;;12.82;3.17;;;;;;;7.30;97.01;101877.59;5021796;28;20029;-52
2023/05/16 01:46:56;;;;;;;11.68;2.65;;;;;;;7.26;97.10;101878.25;5022209;28;20310;-51
2023/05/16 01:49:39;;;;;;;9.23;2.80;;;;;;;7.24;97.40;101888.53;5020111;28;20029;-52
2023/05/16 01:52:10;;;;;;;13.07;3.35;;;;;;;7.20;97.09;101878.78;5021163;28;20036;-53
2023/05/16 01:54:38;;;;;;;11.15;3.05;;;;;;;7.17;96.83;101882.91;5020927;28;20037;-51
2023/05/16 01:57:07;;;;;;;13.18;2.83;;;;;;;7.17;97.26;101885.50;5020835;28;20026;-52
2023/05/16 01:59:33;;;;;;;14.25;2.70;;;;;;;7.12;97.35;101887.84;5020242;28;20072;-51
2023/05/16 02:01:58;;;;;;;11.27;2.97;;;;;;;7.08;97.22;101885.91;5019615;28;20036;-51
2023/05/16 02:04:24;;;;;;;16.75;3.40;;;;;;;7.05;97.29;101889.19;5021508;28;20034;-51
2023/05/16 02:06:50;;;;;;;11.50;2.80;;;;;;;6.98;96.89;101889.72;5021018;28;20024;-52
2023/05/16 02:09:15;;;;;;;14.55;2.60;;;;;;;6.92;97.16;101891.94;5020398;28;20619;-49
2023/05/16 02:11:41;;;;;;;9.60;2.80;;;;;;;6.87;97.65;101902.03;5018999;28;20033;-49
2023/05/16 02:14:06;;;;;;;10.63;2.90;;;;;;;6.82;97.85;101900.88;5019370;28;20457;-53
2023/05/16 02:16:32;;;;;;;10.52;2.70;;;;;;;6.78;97.90;101902.44;5020466;28;20160;-51
2023/05/16 02:18:58;;;;;;;10.98;2.67;;;;;;;6.73;98.17;101900.38;5019919;28;20037;-51
2023/05/16 02:21:23;;;;;;;12.77;2.65;;;;;;;6.66;98.00;101896.53;5019604;28;20032;-52
2023/05/16 02:23:48;;;;;;;10.43;2.70;;;;;;;6.65;97.84;101899.97;5021217;28;20036;-48
2023/05/16 02:26:13;;;;;;;14.10;2.80;;;;;;;6.58;98.23;101897.81;5020006;28;20531;-51
2023/05/16 02:28:39;;;;;;;8.75;2.75;;;;;;;6.56;98.52;101902.91;5019474;28;20029;-51
2023/05/16 02:31:05;;;;;;;11.50;2.60;;;;;;;6.52;98.59;101902.66;5020630;28;20538;-52
2023/05/16 02:33:30;;;;;;;14.10;2.88;;;;;;;6.48;98.90;101900.69;5020653;28;20033;-51
2023/05/16 02:35:55;;;;;;;15.75;3.10;;;;;;;6.47;98.67;101904.09;5019631;28;20495;-50
2023/05/16 02:38:21;;;;;;;14.38;3.20;;;;;;;6.47;98.88;101904.09;5019866;28;20044;-51
2023/05/16 02:40:47;;;;;;;8.45;2.28;;;;;;;6.47;98.98;101914.44;5020300;28;20028;-52
2023/05/16 02:43:13;;;;;;;11.02;3.10;;;;;;;6.43;98.96;101914.25;5020142;28;20029;-51
2023/05/16 02:45:38;;;;;;;11.02;4.00;;;;;;;6.40;99.07;101914.09;5021297;28;20033;-50
2023/05/16 02:48:03;;;;;;;11.93;3.42;;;;;;;6.39;99.13;101919.19;5018480;28;21123;-50
2023/05/16 02:50:29;;;;;;;13.70;3.10;;;;;;;6.37;99.06;101924.28;5019109;28;20034;-52
2023/05/16 02:52:54;;;;;;;11.25;2.72;;;;;;;6.37;99.33;101924.28;5020581;28;20025;-51
2023/05/16 02:55:20;;;;;;;11.57;2.92;;;;;;;6.35;99.34;101923.28;5020922;28;20064;-50
2023/05/16 02:57:45;;;;;;;12.63;3.33;;;;;;;6.34;99.83;101923.19;5019310;28;20029;-52
2023/05/16 03:00:11;;;;;;;12.15;3.83;;;;;;;6.32;99.48;101936.03;5019857;28;20072;-50
2023/05/16 03:02:37;;;;;;;11.85;3.22;;;;;;;6.30;99.14;101929.91;5019909;28;20033;-49
2023/05/16 03:05:03;;;;;;;12.18;3.22;;;;;;;6.31;99.17;101936.84;5020844;28;20041;-50
2023/05/16 03:07:28;;;;;;;13.25;3.17;;;;;;;6.28;99.18;101934.06;5019293;28;20056;-51
2023/05/16 03:09:54;;;;;;;15.60;3.92;;;;;;;6.24;99.36;101932.09;5019411;28;20029;-50
2023/05/16 03:12:19;;;;;;;12.82;3.40;;;;;;;6.21;99.26;101939.69;5020656;28;20021;-50
2023/05/16 03:14:44;;;;;;;11.88;3.00;;;;;;;6.20;99.39;101956.00;5020527;28;20025;-50
2023/05/16 03:17:10;;;;;;;12.90;3.40;;;;;;;6.18;100.00;101955.03;5019159;28;20045;-48
2023/05/16 03:19:35;;;;;;;13.93;3.80;;;;;;;6.15;99.98;101947.09;5017549;28;20041;-50
2023/05/16 03:22:00;;;;;;;10.73;3.10;;;;;;;6.13;99.96;101947.00;5020413;28;20025;-51
2023/05/16 03:24:26;;;;;;;12.63;3.40;;;;;;;6.14;99.98;101948.81;5019252;28;20047;-49
2023/05/16 03:26:51;;;;;;;14.70;3.13;;;;;;;6.12;100.00;101952.09;5018583;28;20394;-50
2023/05/16 03:29:16;;;;;;;11.82;3.55;;;;;;;6.11;100.00;101953.78;5020128;28;20048;-50
2023/05/16 03:31:42;;;;;;;10.68;3.30;;;;;;;6.09;100.00;101948.50;5020223;28;20034;-50
2023/05/16 03:34:07;;;;;;;13.70;3.50;;;;;;;6.06;100.00;101953.50;5018360;28;20108;-50
2023/05/16 03:36:32;;;;;;;13.73;3.42;;;;;;;6.07;100.00;101950.13;5020388;28;20457;-51
2023/05/16 03:38:58;;;;;;;11.32;3.10;;;;;;;6.06;100.00;101950.91;5019414;28;20048;-50
2023/05/16 03:41:23;;;;;;;15.05;3.63;;;;;;;6.02;100.00;101956.69;5018909;28;20113;-49
2023/05/16 03:43:48;;;;;;;11.07;2.95;;;;;;;5.99;100.00;101956.53;5018841;28;20057;-49
2023/05/16 03:46:14;;;;;;;12.20;3.38;;;;;;;5.99;100.00;101959.09;5016787;28;20037;-52
2023/05/16 03:48:39;;;;;;;12.30;3.13;;;;;;;5.97;100.00;101965.91;5018592;28;20025;-50
2023/05/16 03:51:04;;;;;;;14.73;3.38;;;;;;;5.96;100.00;101964.06;5020026;28;20025;-50
2023/05/16 03:53:30;;;;;;;15.23;3.70;;;;;;;5.95;100.00;101970.03;5018834;28;20029;-50
2023/05/16 03:55:55;;;;;;;11.23;3.10;;;;;;;5.91;100.00;101963.78;5017081;28;20567;-50
2023/05/16 03:58:20;;;;;;;13.90;3.20;;;;;;;5.90;100.00;101967.19;5018996;28;20083;-51
2023/05/16 04:00:45;;;;;;;10.88;3.05;;;;;;;5.92;100.00;101969.84;5015699;28;20025;-48
2023/05/16 04:03:11;;;;;;;11.95;3.40;;;;;;;5.90;100.00;101987.00;5019343;28;20029;-51
2023/05/16 04:05:36;;;;;;;10.88;2.88;;;;;;;5.88;100.00;101975.63;5017578;28;20476;-48
2023/05/16 04:08:02;;;;;;;12.57;3.88;;;;;;;5.86;100.00;101972.97;5019280;28;20079;-48
2023/05/16 04:10:27;;;;;;;16.90;3.75;;;;;;;5.86;100.00;101977.25;5018224;28;20033;-50
2023/05/16 04:12:53;;;;;;;17.88;3.45;;;;;;;5.85;100.00;101983.22;5017104;28;20060;-51
2023/05/16 04:15:18;;;;;;;11.90;3.92;;;;;;;5.85;100.00;101988.38;5016913;28;20106;-49
2023/05/16 04:17:44;;;;;;;13.85;3.72;;;;;;;5.83;100.00;101974.47;5018773;28;20116;-51
2023/05/16 04:20:10;;;;;;;18.75;3.40;;;;;;;5.80;100.00;101985.53;5018646;28;20021;-51
2023/05/16 04:22:35;;;;;;;13.65;4.03;;;;;;;5.80;100.00;101988.13;4999822;28;20049;-51
2023/05/16 04:25:01;;;;;;;12.07;3.80;;;;;;;5.80;100.00;101985.53;5016348;28;20030;-50
2023/05/16 04:27:26;;;;;;;11.40;3.75;;;;;;;5.81;100.00;101987.31;5016823;28;20037;-48
2023/05/16 04:29:51;;;;;;;10.48;3.25;;;;;;;5.85;100.00;101993.56;5017575;28;20029;-50
2023/05/16 04:32:17;;;;;;;10.90;3.45;;;;;;;5.86;100.00;101995.34;5019235;28;20425;-49
2023/05/16 04:34:44;;;;;;;13.10;3.90;;;;;;;5.86;100.00;101995.34;5018479;28;20079;-51
2023/05/16 04:37:09;;;;;;;10.18;3.78;;;;;;;5.90;100.00;102005.09;5019816;28;20076;-51
2023/05/16 04:39:35;;;;;;;11.93;3.50;;;;;;;5.90;100.00;102002.50;5019011;28;20052;-49
2023/05/16 04:42:01;;;;;;;10.07;3.65;;;;;;;5.92;100.00;102009.56;5018880;28;21172;-47
2023/05/16 04:44:26;;;;;;;10.90;3.90;;;;;;;5.94;100.00;102014.84;5017688;28;20069;-50
2023/05/16 04:46:52;;;;;;;11.77;3.78;;;;;;;5.96;100.00;102010.63;5000494;28;20068;-51
2023/05/16 04:49:18;;;;;;;15.63;4.05;;;;;;;6.00;100.00;102012.66;5017861;28;20452;-50
2023/05/16 04:51:43;;;;;;;13.93;4.55;;;;;;;6.03;100.00;102015.41;5015637;28;20042;-48
2023/05/16 04:54:09;;;;;;;11.82;4.10;;;;;;;6.05;100.00;102019.00;5014578;28;20034;-51
2023/05/16 04:56:35;;;;;;;13.57;3.47;;;;;;;6.09;100.00;102020.06;5015790;28;20052;-47
2023/05/16 04:59:00;;;;;;;15.77;4.18;;;;;;;6.15;100.00;102022.16;5015896;28;20112;-52
2023/05/16 05:01:25;;;;;;;12.00;3.60;;;;;;;6.18;100.00;102023.22;5015446;28;20061;-51
2023/05/16 05:03:51;;;;;;;14.18;3.30;;;;;;;6.22;100.00;102032.94;5016676;28;20033;-50
2023/05/16 05:06:16;;;;;;;17.58;3.67;;;;;;;6.29;100.00;102033.34;5015522;28;20036;-50
2023/05/16 05:08:41;;;;;;;15.50;3.42;;;;;;;6.33;100.00;102032.69;5015258;28;20040;-50
2023/05/16 05:11:06;;;;;;;15.48;4.45;;;;;;;6.37;100.00;102027.81;5017439;28;20212;-49
2023/05/16 05:13:32;;;;;;;12.43;4.30;;;;;;;6.42;100.00;102023.78;5016906;28;20396;-49
2023/05/16 05:15:57;;;;;;;14.25;3.95;;;;;;;6.46;100.00;102024.88;4998704;28;20103;-48
2023/05/16 05:18:22;;;;;;;12.25;3.80;;;;;;;6.52;100.00;102030.41;5016658;28;20030;-50
2023/05/16 05:20:49;;;;;;;11.65;3.58;;;;;;;6.58;100.00;102029.91;5016016;28;20420;-51
2023/05/16 05:23:14;;;;;;;10.73;3.08;;;;;;;6.63;100.00;102030.16;5016752;28;20084;-49
2023/05/16 05:25:39;;;;;;;17.33;3.55;;;;;;;6.68;100.00;102039.97;5014662;28;20214;-51
2023/05/16 05:28:05;;;;;;;12.23;3.88;;;;;;;6.72;100.00;102038.44;5015704;28;20049;-49
2023/05/16 05:30:30;;;;;;;12.52;3.33;;;;;;;6.77;100.00;102040.50;5015518;28;20639;-50
2023/05/16 05:32:55;;;;;;;11.70;3.45;;;;;;;6.86;100.00;102041.84;5016884;28;20473;-49
2023/05/16 05:35:21;;;;;;;12.38;3.58;;;;;;;6.95;100.00;102040.69;5017831;28;20532;-49
2023/05/16 05:37:46;;;;;;;10.48;3.05;;;;;;;7.09;99.59;102045.78;5017814;28;20045;-48
2023/05/16 05:40:11;;;;;;;10.45;3.40;;;;;;;7.08;99.34;102050.06;5017120;28;20061;-50
2023/05/16 05:42:37;;;;;;;12.68;3.13;;;;;;;7.15;98.80;102051.31;5017318;28;20045;-49
2023/05/16 05:45:02;;;;;;;15.07;3.40;;;;;;;7.22;98.93;102057.75;5015368;28;20029;-50
2023/05/16 05:47:28;;;;;;;10.27;3.45;;;;;;;7.29;99.19;102057.28;5016433;28;20033;-51
2023/05/16 05:49:53;;;;;;;12.02;3.20;;;;;;;7.35;98.85;102056.75;5015534;28;20064;-51
2023/05/16 05:52:18;;;;;;;14.60;3.40;;;;;;;7.44;98.85;102055.56;5017446;28;20030;-50
2023/05/16 05:54:44;;;;;;;12.70;4.05;;;;;;;7.52;98.48;102049.88;5016090;28;20053;-51
2023/05/16 05:57:09;;;;;;;15.23;3.47;;;;;;;7.58;98.48;102052.84;5017413;28;20031;-51
2023/05/16 05:59:34;;;;;;;15.80;3.15;;;;;;;7.67;97.76;102063.69;5017952;28;20029;-51
2023/05/16 06:02:00;;;;;;;8.80;3.28;;;;;;;7.83;96.56;102063.75;5017274;28;20518;-52
2023/05/16 06:04:26;;;;;;;14.85;2.90;;;;;;;7.87;95.90;102061.31;5017885;28;20025;-53
2023/05/16 06:06:51;;;;;;;13.35;3.20;;;;;;;7.97;94.84;102061.88;5018118;28;20373;-52
2023/05/16 06:09:16;;;;;;;10.57;3.05;;;;;;;8.01;96.36;102065.56;4993788;28;20119;-53
2023/05/16 06:11:44;;;;;;;10.57;3.22;;;;;;;8.08;94.58;102079.72;5017973;28;20029;-52
2023/05/16 06:14:09;;;;;;;11.48;3.00;;;;;;;8.25;93.31;102080.66;4997604;28;20468;-52
2023/05/16 06:16:35;;;;;;;7.95;3.20;;;;;;;8.21;93.64;102076.09;5018318;28;20045;-53
2023/05/16 06:19:00;;;;;;;10.80;3.40;;;;;;;8.27;94.87;102079.00;5021819;28;20492;-52
2023/05/16 06:21:25;;;;;;;10.90;2.65;;;;;;;8.38;93.85;102083.06;5020348;28;20044;-52
2023/05/16 06:23:51;;;;;;;12.10;2.50;;;;;;;8.49;91.02;102088.88;5019576;28;20017;-53
2023/05/16 06:26:16;;;;;;;48.65;23.40;;;;;;;8.53;90.99;102080.44;5020039;28;20440;-53
2023/05/16 06:28:41;;;;;;;9.52;3.05;;;;;;;8.58;92.57;102093.66;5019285;28;21104;-53
2023/05/16 06:31:07;;;;;;;11.40;2.85;;;;;;;8.66;91.46;102092.31;5018718;28;20164;-52
2023/05/16 06:33:32;;;;;;;8.93;2.40;;;;;;;8.73;91.21;102089.22;5020432;28;20068;-53
2023/05/16 06:35:58;;;;;;;11.10;2.60;;;;;;;8.80;89.93;102083.53;5021293;28;20060;-53
2023/05/16 06:38:23;;;;;;;9.80;2.40;;;;;;;8.88;90.76;102092.63;5021700;28;20051;-53
2023/05/16 06:40:48;;;;;;;12.77;2.72;;;;;;;8.93;91.30;102087.66;5021935;28;20025;-53
2023/05/16 06:43:14;;;;;;;9.98;2.40;;;;;;;9.02;91.04;102089.81;5023624;28;20033;-53
2023/05/16 06:45:39;;;;;;;9.57;2.70;;;;;;;9.12;91.56;102094.66;5020835;28;20087;-54
2023/05/16 06:48:06;;;;;;;7.53;2.22;;;;;;;9.36;88.58;102094.09;5021149;28;20029;-53
2023/05/16 06:54:03;;;;;;;12.10;2.10;;;;;;;9.60;85.46;102085.69;5595838;22;20061;-78
2023/05/16 06:56:30;;;;;;;8.57;2.17;;;;;;;9.56;85.15;102095.94;5158527;23;20046;-54
2023/05/16 07:01:25;;;;;;;8.88;2.28;;;;;;;9.71;85.17;102087.97;5120954;22;20048;-57
2023/05/16 07:03:51;;;;;;;8.82;2.63;;;;;;;9.77;85.28;102091.69;4997003;22;20041;-78
2023/05/16 07:06:16;;;;;;;6.25;1.40;;;;;;;9.87;82.62;102081.75;5158188;22;20025;-70
2023/05/16 07:08:45;;;;;;;10.02;1.80;;;;;;;9.96;82.04;102093.44;4837261;22;20238;-55
2023/05/16 07:11:10;;;;;;;9.30;1.75;;;;;;;10.05;83.46;102083.44;5042612;22;20049;-77
2023/05/16 07:13:36;;;;;;;11.00;2.00;;;;;;;10.02;81.17;102083.28;5041746;28;20075;-77
2023/05/16 07:18:36;;;;;;;9.77;1.92;;;;;;;10.15;83.14;102088.22;5561490;22;20636;-77
2023/05/16 07:21:02;;;;;;;7.75;2.00;;;;;;;10.25;79.07;102089.53;5241796;23;20037;-77
2023/05/16 07:23:27;;;;;;;8.73;2.05;;;;;;;10.27;80.09;102094.00;5125715;22;20129;-59
2023/05/16 07:25:52;;;;;;;8.40;1.70;;;;;;;10.19;78.45;102095.38;5033252;28;20029;-59
2023/05/16 07:28:17;;;;;;;5.68;1.60;;;;;;;10.16;80.43;102103.03;5078627;23;20053;-77
2023/05/16 07:30:43;;;;;;;9.88;1.70;;;;;;;10.29;76.69;102101.00;5093549;22;20059;-77
2023/05/16 07:33:08;;;;;;;7.60;1.67;;;;;;;10.35;78.29;102101.31;5076442;23;21106;-78
2023/05/16 07:35:33;;;;;;;9.35;1.77;;;;;;;10.48;76.53;102107.97;5173046;22;20069;-78
2023/05/16 07:37:59;;;;;;;11.20;2.20;;;;;;;10.53;79.68;102104.75;5198419;22;20021;-78
2023/05/16 07:40:27;;;;;;;10.23;2.03;;;;;;;10.64;75.20;102106.91;5031561;28;20041;-78
2023/05/16 07:43:05;;;;;;;9.52;2.63;;;;;;;10.43;77.72;102108.66;5159623;23;21328;-77
2023/05/16 07:45:30;;;;;;;5.38;1.90;;;;;;;10.48;75.16;102106.22;5077333;22;20048;-59
2023/05/16 07:47:55;;;;;;;4.72;1.45;;;;;;;10.63;75.00;102105.13;5043922;22;20103;-76
2023/05/16 07:50:21;;;;;;;5.32;1.52;;;;;;;10.77;74.22;102114.44;5060823;22;20168;-59
2023/05/16 07:52:47;;;;;;;8.45;1.70;;;;;;;10.77;76.49;102114.44;4997454;28;20050;-59
2023/05/16 07:55:12;;;;;;;5.43;1.85;;;;;;;10.79;73.85;102112.81;5287080;23;21490;-66
2023/05/16 07:57:38;;;;;;;8.40;1.80;;;;;;;10.82;76.22;102118.16;5032968;28;20098;-66
2023/05/16 08:00:03;;;;;;;8.50;1.70;;;;;;;10.92;73.85;102112.50;5075282;23;20522;-78
2023/05/16 08:02:29;;;;;;;6.85;2.00;;;;;;;10.90;78.75;102113.25;5081941;23;20152;-77
2023/05/16 08:04:56;;;;;;;7.13;1.73;;;;;;;11.03;74.79;102112.94;5054743;22;20049;-59
2023/05/16 08:07:22;;;;;;;5.88;1.88;;;;;;;11.22;77.44;102116.31;5070909;23;20123;-77
2023/05/16 08:09:47;;;;;;;5.70;1.73;;;;;;;11.45;75.88;102101.59;5094667;22;20563;-64
2023/05/16 08:12:12;;;;;;;5.30;1.90;;;;;;;11.75;73.03;102111.50;5064669;22;20091;-77
2023/05/16 08:14:38;;;;;;;4.32;1.70;;;;;;;11.75;75.23;102109.75;5033564;28;20103;-77
2023/05/16 08:17:03;;;;;;;6.53;1.60;;;;;;;11.96;72.51;102109.75;5036438;28;20103;-76
2023/05/16 08:19:29;;;;;;;9.32;1.70;;;;;;;12.22;77.23;102108.94;5122376;22;20056;-76
2023/05/16 08:24:26;;;;;;;7.45;1.80;;;;;;;12.66;72.76;102117.53;5048293;23;20037;-60
2023/05/16 08:26:51;;;;;;;5.38;1.40;;;;;;;12.71;70.09;102115.94;5043981;23;20044;-77
2023/05/16 08:29:16;;;;;;;7.15;1.80;;;;;;;12.90;72.24;102119.22;5083380;22;20059;-60
2023/05/16 08:31:42;;;;;;;6.18;1.60;;;;;;;13.05;69.37;102117.13;5074219;23;20041;-76
2023/05/16 08:34:09;;;;;;;7.45;2.05;;;;;;;12.92;67.50;102113.19;5060145;23;20048;-63
2023/05/16 08:41:34;;;;;;;6.10;1.60;;;;;;;12.38;70.36;102106.06;5057140;22;20172;-77
2023/05/16 08:43:59;;;;;;;5.72;1.40;;;;;;;12.29;69.43;102111.84;4956924;22;20057;-64
2023/05/16 08:46:27;;;;;;;7.25;1.70;;;;;;;12.06;70.08;102102.25;5122636;23;20056;-63
2023/05/16 08:48:57;;;;;;;4.07;1.35;;;;;;;12.09;68.82;102105.84;5107720;22;21637;-63
2023/05/16 08:51:24;;;;;;;6.10;1.55;;;;;;;12.33;70.50;102111.13;5030788;28;20873;-63
2023/05/16 08:53:58;;;;;;;8.73;1.70;;;;;;;12.53;71.36;102103.13;5122559;23;20064;-65
2023/05/16 08:56:25;;;;;;;8.80;1.90;;;;;;;12.88;71.44;102099.09;5096373;22;20504;-64
2023/05/16 08:58:53;;;;;;;7.00;1.45;;;;;;;13.19;69.50;102102.78;5068503;23;20044;-61
2023/05/16 09:01:20;;;;;;;6.35;1.67;;;;;;;13.37;68.05;102105.13;5051480;23;20041;-77
2023/05/16 09:03:49;;;;;;;4.55;1.50;;;;;;;13.55;65.34;102096.97;5093613;22;20108;-74
2023/05/16 09:08:53;;;;;;;6.82;1.95;;;;;;;13.64;65.68;102109.44;5117827;22;20384;-75
2023/05/16 09:11:20;;;;;;;9.35;2.50;;;;;;;13.55;66.88;102103.94;5113907;23;21741;-76
2023/05/16 09:13:46;;;;;;;6.30;1.98;;;;;;;13.41;70.22;102118.31;5025665;28;20191;-77
2023/05/16 09:16:15;;;;;;;6.80;2.55;;;;;;;13.20;67.64;102116.75;5058033;23;20140;-60
2023/05/16 09:18:43;;;;;;;7.07;2.20;;;;;;;12.97;67.50;102113.34;5052639;23;20050;-76
2023/05/16 09:21:10;;;;;;;5.82;2.53;;;;;;;12.78;68.78;102117.94;5099916;22;20052;-96
2023/05/16 09:23:48;;;;;;;10.18;2.97;;;;;;;12.67;68.94;102124.50;5057121;28;20096;-96
2023/05/16 09:26:30;;;;;;;;;;;;;;;;;;;;;
2023/05/16 09:31:37;;;;;;;8.10;2.67;;;;;;;12.56;72.30;102107.53;5142010;23;20564;-58
2023/05/16 09:36:32;;;;;;;8.63;2.72;;;;;;;13.16;72.38;102113.13;5053314;22;20041;-74
2023/05/16 09:38:57;;;;;;;6.10;2.30;;;;;;;13.55;71.89;102098.69;5055604;22;20029;-76
2023/05/16 09:41:22;;;;;;;6.75;2.20;;;;;;;13.82;62.30;102109.16;5221387;22;20064;-63
2023/05/16 09:43:48;;;;;;;7.40;2.08;;;;;;;13.93;66.24;102103.34;5028145;28;20041;-64
2023/05/16 09:46:14;;;;;;;4.30;1.70;;;;;;;14.08;67.31;102101.19;5095651;23;20057;-64
2023/05/16 09:48:45;;;;;;;4.95;1.75;;;;;;;14.19;64.06;102106.72;5066063;23;20072;-96
2023/05/16 09:51:11;;;;;;;5.32;1.90;;;;;;;14.12;65.81;102099.53;5015273;28;20033;-95
2023/05/16 09:53:37;;;;;;;6.45;2.10;;;;;;;14.37;67.15;102102.03;5017245;28;20021;-95
2023/05/16 09:56:03;;;;;;;5.70;2.13;;;;;;;14.54;63.52;102102.50;5017381;28;20024;-96
2023/05/16 09:58:39;;;;;;;8.48;2.40;;;;;;;14.71;65.28;102095.09;5017707;28;20029;-96
2023/05/16 10:01:08;;;;;;;8.55;2.30;;;;;;;14.84;64.87;102104.19;5019427;28;20055;-94
2023/05/16 10:03:38;;;;;;;6.70;1.92;;;;;;;14.99;60.40;102100.19;5015616;28;20494;-96
2023/05/16 10:06:06;;;;;;;7.78;2.10;;;;;;;14.60;59.44;102093.91;5018192;28;20406;-95
2023/05/16 10:08:35;;;;;;;5.40;1.98;;;;;;;14.15;60.82;102107.47;5013683;28;20099;-95
2023/05/16 10:11:03;;;;;;;5.47;1.65;;;;;;;13.95;60.02;102092.06;5032733;28;20041;-94
2023/05/16 10:13:30;;;;;;;3.72;1.50;;;;;;;13.61;61.53;102108.47;5017864;28;20033;-94
2023/05/16 10:16:00;;;;;;;7.03;1.65;;;;;;;13.46;61.19;102091.44;5017011;28;20083;-95
2023/05/16 10:18:37;;;;;;;6.45;1.60;;;;;;;13.30;62.70;102110.09;5017629;28;20098;-95
2023/05/16 10:21:15;;;;;;;7.63;1.92;;;;;;;13.38;65.01;102101.69;5015743;28;20494;-96
2023/05/16 10:23:46;;;;;;;5.10;1.40;;;;;;;13.87;62.41;102090.94;5015977;28;20025;-96
2023/05/16 10:26:17;;;;;;;5.22;1.40;;;;;;;14.41;60.22;102090.78;5014146;28;20095;-95
2023/05/16 10:28:48;;;;;;;8.02;1.60;;;;;;;14.49;57.83;102093.59;5016873;28;20041;-96
2023/05/16 10:31:17;;;;;;;4.75;1.45;;;;;;;14.46;58.27;102095.25;5031646;28;20033;-95
2023/05/16 10:33:49;;;;;;;8.05;1.70;;;;;;;14.48;58.20;102097.06;5017125;28;20029;-95
2023/05/16 10:36:18;;;;;;;3.70;1.20;;;;;;;14.28;56.87;102099.16;5033862;28;20022;-95
2023/05/16 10:38:48;;;;;;;4.47;1.10;;;;;;;14.28;58.69;102088.66;5017345;28;20036;-94
2023/05/16 10:41:20;;;;;;;3.72;1.13;;;;;;;14.46;61.54;102087.41;5016391;28;20070;-95
2023/05/16 10:43:55;;;;;;;6.18;1.20;;;;;;;14.84;58.25;102091.06;5013839;28;20075;-95
2023/05/16 10:46:28;;;;;;;6.32;1.50;;;;;;;14.77;56.24;102094.38;5031229;28;20707;-96
2023/05/16 10:48:57;;;;;;;3.55;1.17;;;;;;;14.44;57.86;102084.72;5012582;28;21413;-96
2023/05/16 10:54:03;;;;;;;5.03;1.80;;;;;;;14.01;58.22;102099.22;5045419;23;20328;-76
2023/05/16 10:56:44;;;;;;;7.55;1.75;;;;;;;14.21;57.28;102097.19;5107787;23;20080;-96
2023/05/16 10:59:25;;;;;;;6.03;1.25;;;;;;;14.49;56.53;102095.34;5038763;28;20033;-96
2023/05/16 11:01:58;;;;;;;6.90;1.58;;;;;;;14.81;59.06;102090.97;5041237;28;20022;-96
2023/05/16 11:09:29;;;;;;;6.95;1.52;;;;;;;15.60;54.14;102096.44;4931584;22;20111;-60
2023/05/16 11:12:02;;;;;;;5.65;1.60;;;;;;;15.28;55.06;102090.44;5118933;23;20045;-77
2023/05/16 11:14:33;;;;;;;6.63;1.60;;;;;;;14.92;57.09;102100.03;5032879;22;21887;-76
2023/05/16 11:17:11;;;;;;;7.55;1.63;;;;;;;14.69;56.96;102095.94;5158331;23;20107;-75
2023/05/16 11:19:44;;;;;;;6.03;1.40;;;;;;;14.73;55.99;102088.16;5040434;23;20024;-59
2023/05/16 11:22:18;;;;;;;6.63;1.70;;;;;;;14.59;59.09;102100.00;5110394;22;20173;-60
2023/05/16 11:24:53;;;;;;;4.68;1.55;;;;;;;14.43;56.75;102102.19;5045093;22;20057;-76
2023/05/16 11:27:22;;;;;;;6.35;1.35;;;;;;;14.34;56.67;102094.06;5014802;28;20045;-77
2023/05/16 11:29:47;;;;;;;5.20;1.40;;;;;;;14.31;57.90;102096.63;5059986;23;20130;-60
2023/05/16 11:32:13;;;;;;;5.13;1.45;;;;;;;14.25;59.70;102096.41;5087852;23;20444;-59
2023/05/16 11:34:39;;;;;;;7.05;2.53;;;;;;;14.18;59.94;102097.06;5102493;22;20424;-76
2023/05/16 11:39:34;;;;;;;6.32;1.67;;;;;;;14.34;59.00;102099.31;5060809;22;20056;-76
2023/05/16 11:42:00;;;;;;;6.22;1.75;;;;;;;14.40;61.00;102096.84;5049880;23;20488;-60
2023/05/16 11:44:25;;;;;;;4.90;1.75;;;;;;;14.36;60.48;102096.72;5018037;22;1089122;-59
2023/05/16 11:46:50;;;;;;;7.30;2.10;;;;;;;14.35;63.52;102093.22;5155113;22;20057;-60
2023/05/16 11:49:16;;;;;;;4.78;1.50;;;;;;;14.31;60.52;102104.47;5065261;23;20086;-77
2023/05/16 11:56:40;;;;;;;8.23;1.70;;;;;;;14.72;58.87;102096.88;5146205;23;20372;31
2023/05/16 11:59:06;;;;;;;4.22;1.92;;;;;;;14.98;57.94;102098.44;5088627;22;20045;-76
2023/05/16 12:03:57;;;;;;;8.32;1.83;;;;;;;14.96;58.92;102100.97;5158915;22;20412;-60
2023/05/16 12:06:23;;;;;;;6.10;1.70;;;;;;;14.93;56.26;102106.16;5152131;23;20049;-76